6.66C
ясно
ясно
Дата и времяТемператураДавление, мм рт.ст.Влажность, %Осадки
МинимумМаксимум
20.06.2024 08:007.78C7.78C75852ясно
20.06.2024 11:008.95C11.28C75749ясно
20.06.2024 14:0012.23C14.45C75643ясно
20.06.2024 17:0016.39C16.39C75334ясно
20.06.2024 20:0015.26C15.26C75344ясно
20.06.2024 23:0010.63C10.63C75253небольшая облачность
21.06.2024 02:009.46C9.46C75057переменная облачность
21.06.2024 05:0012.14C12.14C75057облачно с прояснениями
21.06.2024 08:0015.49C15.49C74951пасмурно
21.06.2024 11:0015.61C15.61C74954пасмурно
21.06.2024 14:0015.62C15.62C74954пасмурно
21.06.2024 17:0013.37C13.37C75064пасмурно
21.06.2024 20:0013.27C13.27C75068пасмурно
21.06.2024 23:0010.24C10.24C75177пасмурно
22.06.2024 02:007.73C7.73C75283облачно с прояснениями
22.06.2024 05:009.01C9.01C75368пасмурно
22.06.2024 08:0013.4C13.4C75352переменная облачность
22.06.2024 11:0017.89C17.89C75343переменная облачность
22.06.2024 14:0019.83C19.83C75344пасмурно
22.06.2024 17:0022.48C22.48C75347пасмурно
22.06.2024 20:0020.75C20.75C75358пасмурно
22.06.2024 23:0017.06C17.06C75355облачно с прояснениями
23.06.2024 02:0015.5C15.5C75359переменная облачность
23.06.2024 05:0016.83C16.83C75363переменная облачность
23.06.2024 08:0021.86C21.86C75353облачно с прояснениями
23.06.2024 11:0025.25C25.25C75346облачно с прояснениями
23.06.2024 14:0026.72C26.72C75239переменная облачность
23.06.2024 17:0026.91C26.91C75133облачно с прояснениями
23.06.2024 20:0023.79C23.79C75144пасмурно
23.06.2024 23:0020.37C20.37C75053пасмурно
24.06.2024 02:0020.27C20.27C75070пасмурно
24.06.2024 05:0020.25C20.25C75073пасмурно
24.06.2024 08:0022.49C22.49C75060пасмурно
24.06.2024 11:0025C25C75054небольшой дождь
24.06.2024 14:0026.12C26.12C74953небольшой дождь
24.06.2024 17:0026.12C26.12C74853небольшой дождь
24.06.2024 20:0023.8C23.8C74863переменная облачность
24.06.2024 23:0021.2C21.2C74971небольшой дождь
25.06.2024 02:0019.24C19.24C74884облачно с прояснениями
25.06.2024 05:0019.85C19.85C74983облачно с прояснениями
Дата и время наблюдения: 20.06.2024 07:18:08